createdAt,value
2023-03-19T00:00:32.029Z,45.81
2023-03-19T00:03:20.778Z,45.77
2023-03-19T00:05:53.284Z,45.85
2023-03-19T00:08:21.675Z,45.83
2023-03-19T00:10:49.998Z,45.82
2023-03-19T00:13:18.540Z,45.97
2023-03-19T00:15:47.457Z,45.94
2023-03-19T00:18:16.065Z,45.93
2023-03-19T00:20:44.035Z,45.71
2023-03-19T00:23:12.476Z,45.76
2023-03-19T00:25:42.211Z,45.78
2023-03-19T00:28:10.324Z,45.93
2023-03-19T00:30:38.516Z,45.69
2023-03-19T00:33:07.080Z,45.83
2023-03-19T00:35:35.294Z,45.73
2023-03-19T00:38:04.868Z,45.80
2023-03-19T00:40:34.048Z,46.06
2023-03-19T00:43:01.973Z,45.97
2023-03-19T00:45:30.988Z,45.95
2023-03-19T00:47:59.225Z,45.98
2023-03-19T00:50:27.262Z,45.98
2023-03-19T00:52:55.329Z,45.84
2023-03-19T00:55:24.541Z,45.84
2023-03-19T00:57:52.678Z,46.03
2023-03-19T01:00:21.328Z,46.11
2023-03-19T01:02:49.448Z,46.13
2023-03-19T01:05:17.558Z,46.06
2023-03-19T01:07:45.603Z,46.09
2023-03-19T01:10:13.631Z,46.06
2023-03-19T01:12:41.974Z,46.29
2023-03-19T01:15:10.416Z,46.06
2023-03-19T01:17:38.753Z,46.01
2023-03-19T01:20:12.924Z,46.18
2023-03-19T01:22:42.645Z,45.99
2023-03-19T01:25:12.641Z,46.03
2023-03-19T01:27:44.646Z,45.98
2023-03-19T01:30:14.712Z,46.11
2023-03-19T01:33:15.246Z,46.11
2023-03-19T01:36:04.954Z,46.07
2023-03-19T01:38:59.132Z,46.16
2023-03-19T01:41:27.345Z,46.29
2023-03-19T01:43:59.527Z,46.29
2023-03-19T01:46:41.357Z,46.23
2023-03-19T01:49:29.352Z,46.47
2023-03-19T01:52:19.624Z,46.50
2023-03-19T01:55:09.112Z,46.41
2023-03-19T01:58:08.286Z,46.45
2023-03-19T02:00:59.146Z,46.29
2023-03-19T02:03:27.749Z,46.46
2023-03-19T02:06:25.300Z,46.38
2023-03-19T02:08:54.813Z,46.52
2023-03-19T02:11:23.374Z,46.54
2023-03-19T02:13:51.986Z,46.44
2023-03-19T02:16:20.058Z,46.65
2023-03-19T02:18:48.783Z,46.67
2023-03-19T02:21:18.643Z,46.39
2023-03-19T02:23:53.685Z,46.51
2023-03-19T02:26:28.860Z,46.37
2023-03-19T02:29:00.120Z,46.52
2023-03-19T02:31:32.041Z,46.50
2023-03-19T02:34:01.791Z,46.50
2023-03-19T02:36:37.330Z,46.71
2023-03-19T02:39:07.357Z,46.57
2023-03-19T02:41:37.779Z,46.64
2023-03-19T02:44:06.676Z,46.84
2023-03-19T02:46:34.826Z,46.60
2023-03-19T02:49:02.880Z,46.74
2023-03-19T02:51:30.956Z,46.58
2023-03-19T02:54:00.981Z,46.52
2023-03-19T02:56:29.278Z,46.61
2023-03-19T02:58:57.251Z,46.88
2023-03-19T03:01:26.005Z,46.54
2023-03-19T03:03:54.412Z,46.72
2023-03-19T03:06:26.648Z,46.67
2023-03-19T03:08:54.754Z,46.61
2023-03-19T03:11:24.031Z,46.55
2023-03-19T03:13:52.102Z,46.56
2023-03-19T03:16:20.080Z,46.43
2023-03-19T03:18:48.113Z,46.39
2023-03-19T03:21:20.141Z,46.43
2023-03-19T03:23:48.657Z,46.66
2023-03-19T03:26:17.365Z,46.44
2023-03-19T03:28:45.829Z,46.55
2023-03-19T03:31:14.705Z,46.63
2023-03-19T03:33:42.748Z,46.64
2023-03-19T03:36:10.703Z,46.77
2023-03-19T03:38:38.795Z,46.60
2023-03-19T03:41:06.693Z,47.00
2023-03-19T03:43:35.588Z,46.77
2023-03-19T03:46:04.153Z,46.81
2023-03-19T03:48:33.013Z,46.63
2023-03-19T03:51:01.216Z,46.82
2023-03-19T03:53:29.396Z,46.90
2023-03-19T03:55:57.725Z,46.85
2023-03-19T03:58:26.804Z,46.68
2023-03-19T04:00:55.252Z,46.51
2023-03-19T04:03:24.731Z,46.84
2023-03-19T04:05:54.658Z,46.69
2023-03-19T04:08:23.517Z,46.69
2023-03-19T04:10:51.986Z,47.08
2023-03-19T04:13:20.415Z,46.88
2023-03-19T04:15:48.874Z,46.72
2023-03-19T04:18:17.994Z,46.86
2023-03-19T04:20:47.857Z,46.79
2023-03-19T04:23:16.956Z,46.96
2023-03-19T04:25:45.409Z,46.83
2023-03-19T04:28:13.410Z,46.59
2023-03-19T04:30:43.600Z,46.91
2023-03-19T04:33:13.267Z,46.61
2023-03-19T04:35:41.652Z,46.84
2023-03-19T04:38:10.026Z,46.77
2023-03-19T04:40:38.443Z,46.85
2023-03-19T04:43:07.520Z,46.89
2023-03-19T04:45:36.782Z,46.75
2023-03-19T04:48:06.318Z,47.02
2023-03-19T04:50:35.600Z,46.97
2023-03-19T04:53:04.262Z,46.79
2023-03-19T04:55:32.631Z,46.98
2023-03-19T04:58:06.975Z,46.94
2023-03-19T05:00:37.056Z,46.92
2023-03-19T05:03:06.430Z,47.00
2023-03-19T05:05:35.154Z,46.90
2023-03-19T05:08:07.574Z,47.12
2023-03-19T05:10:36.773Z,46.99
2023-03-19T05:13:05.972Z,46.95
2023-03-19T05:15:34.749Z,47.02
2023-03-19T05:18:08.807Z,47.20
2023-03-19T05:20:42.814Z,47.10
2023-03-19T05:23:18.100Z,47.02
2023-03-19T05:26:06.869Z,47.34
2023-03-19T05:28:53.640Z,47.19
2023-03-19T05:31:27.051Z,47.56
2023-03-19T05:33:56.215Z,47.43
2023-03-19T05:36:24.407Z,47.22
2023-03-19T05:39:14.326Z,47.35
2023-03-19T05:41:43.832Z,47.49
2023-03-19T05:44:16.785Z,47.43
2023-03-19T05:47:05.376Z,47.29
2023-03-19T05:49:35.999Z,47.36
2023-03-19T05:52:05.460Z,47.71
2023-03-19T05:54:33.438Z,47.49
2023-03-19T05:57:09.231Z,47.66
2023-03-19T05:59:48.234Z,47.92
2023-03-19T06:02:43.163Z,47.75
2023-03-19T06:05:36.668Z,47.79
2023-03-19T06:08:23.626Z,47.89
2023-03-19T06:11:00.320Z,47.88
2023-03-19T06:13:37.521Z,48.09
2023-03-19T06:16:09.476Z,47.90
2023-03-19T06:18:47.260Z,47.94
2023-03-19T06:21:16.590Z,48.04
2023-03-19T06:23:45.350Z,48.26
2023-03-19T06:26:15.842Z,47.98
2023-03-19T06:28:48.661Z,48.25
2023-03-19T06:31:17.745Z,48.09
2023-03-19T06:33:58.408Z,48.16
2023-03-19T06:36:32.032Z,48.28
2023-03-19T06:39:00.294Z,48.16
2023-03-19T06:41:28.167Z,48.32
2023-03-19T06:44:06.122Z,48.36
2023-03-19T06:46:34.136Z,48.47
2023-03-19T06:49:02.104Z,48.35
2023-03-19T06:51:30.145Z,48.39
2023-03-19T06:53:59.817Z,48.22
2023-03-19T06:56:28.019Z,48.23
2023-03-19T06:58:56.665Z,48.42
2023-03-19T07:01:24.678Z,48.30
2023-03-19T07:03:52.733Z,48.23
2023-03-19T07:06:22.170Z,48.29
2023-03-19T07:08:50.440Z,48.28
2023-03-19T07:11:18.541Z,48.20
2023-03-19T07:13:46.694Z,48.33
2023-03-19T07:16:14.737Z,48.37
2023-03-19T07:18:43.245Z,48.23
2023-03-19T07:21:11.788Z,48.29
2023-03-19T07:23:41.541Z,48.29
2023-03-19T07:26:09.583Z,48.39
2023-03-19T07:28:38.055Z,48.39
2023-03-19T07:31:07.148Z,48.46
2023-03-19T07:33:36.198Z,48.43
2023-03-19T07:36:04.513Z,48.47
2023-03-19T07:38:32.474Z,48.47
2023-03-19T07:41:02.741Z,48.47
2023-03-19T07:43:31.439Z,48.40
2023-03-19T07:45:59.997Z,48.51
2023-03-19T07:48:28.211Z,48.78
2023-03-19T07:50:56.240Z,49.23
2023-03-19T07:53:24.328Z,49.43
2023-03-19T07:55:52.266Z,49.62
2023-03-19T07:58:20.369Z,49.70
2023-03-19T08:00:48.920Z,49.93
2023-03-19T08:03:18.021Z,50.01
2023-03-19T08:05:48.487Z,49.94
2023-03-19T08:08:17.781Z,50.07
2023-03-19T08:10:45.806Z,50.15
2023-03-19T08:13:14.324Z,50.16
2023-03-19T08:15:42.589Z,50.27
2023-03-19T08:18:11.136Z,50.24
2023-03-19T08:20:39.087Z,50.24
2023-03-19T08:23:08.105Z,50.47
2023-03-19T08:25:36.317Z,50.47
2023-03-19T08:28:04.452Z,50.39
2023-03-19T08:30:32.926Z,50.38
2023-03-19T08:33:01.743Z,50.47
2023-03-19T08:35:29.934Z,50.48
2023-03-19T08:37:57.878Z,50.64
2023-03-19T08:40:26.166Z,50.71
2023-03-19T08:42:54.666Z,50.69
2023-03-19T08:45:23.682Z,50.93
2023-03-19T08:47:51.723Z,50.93
2023-03-19T08:50:19.902Z,50.98
2023-03-19T08:52:48.283Z,50.90
2023-03-19T08:55:17.188Z,51.05
2023-03-19T08:57:45.236Z,51.00
2023-03-19T09:00:13.865Z,50.90
2023-03-19T09:02:41.764Z,50.67
2023-03-19T09:05:10.102Z,50.55
2023-03-19T09:07:38.002Z,50.59
2023-03-19T09:10:07.268Z,50.31
2023-03-19T09:12:36.180Z,50.45
2023-03-19T09:15:04.681Z,50.46
2023-03-19T09:17:32.553Z,50.54
2023-03-19T09:20:00.476Z,50.46
2023-03-19T09:22:28.418Z,50.33
2023-03-19T09:24:56.428Z,50.24
2023-03-19T09:27:24.507Z,50.26
2023-03-19T09:29:52.435Z,50.07
2023-03-19T09:32:21.114Z,50.23
2023-03-19T09:34:49.781Z,50.13
2023-03-19T09:37:18.556Z,50.00
2023-03-19T09:39:47.172Z,50.02
2023-03-19T09:42:21.176Z,49.95
2023-03-19T09:44:52.395Z,49.85
2023-03-19T09:47:32.401Z,49.92
2023-03-19T09:50:06.898Z,49.90
2023-03-19T09:52:34.753Z,49.88
2023-03-19T09:55:12.659Z,49.86
2023-03-19T09:57:40.572Z,49.89
2023-03-19T10:00:23.476Z,49.89
2023-03-19T10:02:57.254Z,49.84
2023-03-19T10:05:45.434Z,49.88
2023-03-19T10:08:19.464Z,49.85
2023-03-19T10:10:56.681Z,49.87
2023-03-19T10:13:39.800Z,49.83
2023-03-19T10:16:14.343Z,49.72
2023-03-19T10:18:45.983Z,49.76
2023-03-19T10:21:24.311Z,49.68
2023-03-19T10:24:02.101Z,49.64
2023-03-19T10:26:31.575Z,49.69
2023-03-19T10:29:02.364Z,49.61
2023-03-19T10:31:37.998Z,49.62
2023-03-19T10:34:06.194Z,49.52
2023-03-19T10:36:35.717Z,49.40
2023-03-19T10:39:06.952Z,49.50
2023-03-19T10:42:01.172Z,49.59
2023-03-19T10:44:34.608Z,49.46
2023-03-19T10:47:11.280Z,49.43
2023-03-19T10:49:39.419Z,49.37
2023-03-19T10:52:16.766Z,49.20
2023-03-19T10:54:46.168Z,49.15
2023-03-19T10:57:26.240Z,49.01
2023-03-19T10:59:54.412Z,49.06
2023-03-19T11:02:23.985Z,49.02
2023-03-19T11:05:08.232Z,49.06
2023-03-19T11:07:37.239Z,48.90
2023-03-19T11:10:05.984Z,48.85
2023-03-19T11:12:34.918Z,48.69
2023-03-19T11:15:05.867Z,48.65
2023-03-19T11:17:48.073Z,48.68
2023-03-19T11:20:15.989Z,48.71
2023-03-19T11:22:44.386Z,48.77
2023-03-19T11:25:23.638Z,48.76
2023-03-19T11:27:58.173Z,48.74
2023-03-19T11:30:28.251Z,48.68
2023-03-19T11:32:56.894Z,48.68
2023-03-19T11:35:39.025Z,48.66
2023-03-19T11:38:11.156Z,48.59
2023-03-19T11:40:53.168Z,48.55
2023-03-19T11:43:28.815Z,48.51
2023-03-19T11:46:02.778Z,48.52
2023-03-19T11:48:34.051Z,48.53
2023-03-19T11:51:22.968Z,48.48
2023-03-19T11:54:04.404Z,48.59
2023-03-19T11:56:40.767Z,48.55
2023-03-19T11:59:11.587Z,48.58
2023-03-19T12:01:43.652Z,48.35
2023-03-19T12:04:14.758Z,48.27
2023-03-19T12:06:48.854Z,48.18
2023-03-19T12:09:29.804Z,48.21
2023-03-19T12:12:07.628Z,48.20
2023-03-19T12:14:35.902Z,48.10
2023-03-19T12:17:13.275Z,48.05
2023-03-19T12:19:41.499Z,48.07
2023-03-19T12:22:10.033Z,48.10
2023-03-19T12:24:38.066Z,48.07
2023-03-19T12:27:19.178Z,48.02
2023-03-19T12:29:55.441Z,48.08
2023-03-19T12:32:26.493Z,48.09
2023-03-19T12:35:30.044Z,48.11
2023-03-19T12:38:07.650Z,48.10
2023-03-19T12:40:51.686Z,48.14
2023-03-19T12:43:30.929Z,48.25
2023-03-19T12:46:14.018Z,48.19
2023-03-19T12:48:57.587Z,48.21
2023-03-19T12:51:27.675Z,48.34
2023-03-19T12:53:59.404Z,48.35
2023-03-19T12:56:32.925Z,48.35
2023-03-19T12:59:20.303Z,48.44
2023-03-19T13:01:50.726Z,48.52
2023-03-19T13:04:30.060Z,48.65
2023-03-19T13:06:58.545Z,48.64
2023-03-19T13:09:56.531Z,48.73
2023-03-19T13:12:27.742Z,48.88
2023-03-19T13:15:03.179Z,48.79
2023-03-19T13:17:52.567Z,48.84
2023-03-19T13:20:39.498Z,48.91
2023-03-19T13:23:08.740Z,48.89
2023-03-19T13:25:44.960Z,48.89
2023-03-19T13:28:18.916Z,48.89
2023-03-19T13:31:19.568Z,48.83
2023-03-19T13:34:01.947Z,48.78
2023-03-19T13:36:31.185Z,48.78
2023-03-19T13:39:00.797Z,48.80
2023-03-19T13:41:42.606Z,48.63
2023-03-19T13:44:22.708Z,48.57
2023-03-19T13:46:51.540Z,48.42
2023-03-19T13:49:19.664Z,48.31
2023-03-19T13:51:48.091Z,48.17
2023-03-19T13:54:17.922Z,47.97
2023-03-19T13:57:06.968Z,47.81
2023-03-19T13:59:36.311Z,47.76
2023-03-19T14:02:22.533Z,47.59
2023-03-19T14:05:00.208Z,47.63
2023-03-19T14:07:30.970Z,47.54
2023-03-19T14:10:00.642Z,47.43
2023-03-19T14:12:47.846Z,47.36
2023-03-19T14:15:21.600Z,47.32
2023-03-19T14:17:53.808Z,47.22
2023-03-19T14:20:37.352Z,47.17
2023-03-19T14:23:08.976Z,47.10
2023-03-19T14:25:57.338Z,47.13
2023-03-19T14:28:58.182Z,47.06
2023-03-19T14:31:30.606Z,47.08
2023-03-19T14:34:18.686Z,47.06
2023-03-19T14:36:56.930Z,47.06
2023-03-19T14:39:27.819Z,47.05
2023-03-19T14:42:18.881Z,46.96
2023-03-19T14:45:06.083Z,46.93
2023-03-19T14:48:04.126Z,46.87
2023-03-19T14:50:51.454Z,46.80
2023-03-19T14:53:23.962Z,46.77
2023-03-19T14:55:53.062Z,46.71
2023-03-19T14:58:22.129Z,46.63
2023-03-19T15:00:52.093Z,46.54
2023-03-19T15:03:39.411Z,46.41
2023-03-19T15:06:12.082Z,46.19
2023-03-19T15:08:40.987Z,45.95
2023-03-19T15:11:16.189Z,45.76
2023-03-19T15:14:03.572Z,45.65
2023-03-19T15:16:37.765Z,45.58
2023-03-19T15:19:10.491Z,45.41
2023-03-19T15:21:40.113Z,45.35
2023-03-19T15:24:14.902Z,45.18
2023-03-19T15:26:44.335Z,45.15
2023-03-19T15:29:13.733Z,45.03
2023-03-19T15:31:51.059Z,45.02
2023-03-19T15:34:23.293Z,44.90
2023-03-19T15:36:57.343Z,44.62
2023-03-19T15:39:27.337Z,44.52
2023-03-19T15:41:56.076Z,44.31
2023-03-19T15:44:31.697Z,44.16
2023-03-19T15:47:02.409Z,43.94
2023-03-19T15:49:35.552Z,43.93
2023-03-19T15:52:05.656Z,43.83
2023-03-19T15:54:34.128Z,43.80
2023-03-19T15:57:02.205Z,43.90
2023-03-19T15:59:31.788Z,44.05
2023-03-19T16:02:00.874Z,44.51
2023-03-19T16:04:30.119Z,44.69
2023-03-19T16:06:59.106Z,44.48
2023-03-19T16:09:27.216Z,44.35
2023-03-19T16:11:56.205Z,44.05
2023-03-19T16:14:26.742Z,43.81
2023-03-19T16:17:11.008Z,43.71
2023-03-19T16:19:48.068Z,43.62
2023-03-19T16:22:17.355Z,43.22
2023-03-19T16:24:46.697Z,42.92
2023-03-19T16:27:34.886Z,42.88
2023-03-19T16:30:04.111Z,42.92
2023-03-19T16:32:32.621Z,42.87
2023-03-19T16:35:03.933Z,42.84
2023-03-19T16:37:38.008Z,42.96
2023-03-19T16:40:12.322Z,43.03
2023-03-19T16:42:41.338Z,43.01
2023-03-19T16:45:16.300Z,42.84
2023-03-19T16:47:51.435Z,42.77
2023-03-19T16:50:20.944Z,42.85
2023-03-19T16:52:49.490Z,42.90
2023-03-19T16:55:25.713Z,42.96
2023-03-19T16:57:58.940Z,43.03
2023-03-19T17:00:28.293Z,43.07
2023-03-19T17:02:57.954Z,43.21
2023-03-19T17:05:26.732Z,43.26
2023-03-19T17:07:57.799Z,43.27
2023-03-19T17:10:27.604Z,43.39
2023-03-19T17:12:56.130Z,43.26
2023-03-19T17:15:24.017Z,43.31
2023-03-19T17:17:52.142Z,43.44
2023-03-19T17:20:28.171Z,43.47
2023-03-19T17:22:56.307Z,43.52
2023-03-19T17:25:24.717Z,43.71
2023-03-19T17:27:52.663Z,43.88
2023-03-19T17:30:20.837Z,43.99
2023-03-19T17:32:49.857Z,43.95
2023-03-19T17:35:19.351Z,43.92
2023-03-19T17:37:47.810Z,43.95
2023-03-19T17:40:27.415Z,43.86
2023-03-19T17:42:56.229Z,44.01
2023-03-19T17:45:29.702Z,44.07
2023-03-19T17:47:58.578Z,44.10
2023-03-19T17:50:27.446Z,44.10
2023-03-19T17:52:55.579Z,44.08
2023-03-19T17:55:25.356Z,44.15
2023-03-19T17:57:53.331Z,44.24
2023-03-19T18:00:22.662Z,44.33
2023-03-19T18:02:51.948Z,44.37
2023-03-19T18:05:21.457Z,44.39
2023-03-19T18:07:50.659Z,44.35
2023-03-19T18:10:20.286Z,44.46
2023-03-19T18:12:49.468Z,44.50
2023-03-19T18:15:17.444Z,44.57
2023-03-19T18:17:47.949Z,44.57
2023-03-19T18:20:17.542Z,44.66
2023-03-19T18:22:45.599Z,44.85
2023-03-19T18:25:18.107Z,44.94
2023-03-19T18:27:46.271Z,44.95
2023-03-19T18:30:16.134Z,44.80
2023-03-19T18:32:47.411Z,44.87
2023-03-19T18:35:26.825Z,45.01
2023-03-19T18:37:55.298Z,45.14
2023-03-19T18:40:24.792Z,45.17
2023-03-19T18:42:52.981Z,45.26
2023-03-19T18:45:21.134Z,45.35
2023-03-19T18:47:50.907Z,45.40
2023-03-19T18:50:20.312Z,45.37
2023-03-19T18:52:49.715Z,45.46
2023-03-19T18:55:18.822Z,45.58
2023-03-19T18:57:53.428Z,45.64
2023-03-19T19:00:24.418Z,45.69
2023-03-19T19:02:53.556Z,45.68
2023-03-19T19:05:23.939Z,45.69
2023-03-19T19:07:52.023Z,45.83
2023-03-19T19:10:20.456Z,45.73
2023-03-19T19:12:52.307Z,45.87
2023-03-19T19:15:23.263Z,45.83
2023-03-19T19:17:51.827Z,45.92
2023-03-19T19:20:22.137Z,45.97
2023-03-19T19:22:53.614Z,46.00
2023-03-19T19:25:22.729Z,46.03
2023-03-19T19:27:56.374Z,46.08
2023-03-19T19:30:24.367Z,46.15
2023-03-19T19:32:52.347Z,46.28
2023-03-19T19:35:23.000Z,46.18
2023-03-19T19:37:53.430Z,46.19
2023-03-19T19:40:26.742Z,46.08
2023-03-19T19:42:55.228Z,46.09
2023-03-19T19:45:26.365Z,46.24
2023-03-19T19:47:56.495Z,46.22
2023-03-19T19:50:27.661Z,46.18
2023-03-19T19:52:56.353Z,46.24
2023-03-19T19:55:25.960Z,46.32
2023-03-19T19:57:55.349Z,46.27
2023-03-19T20:00:23.401Z,46.23
2023-03-19T20:02:51.217Z,46.27
2023-03-19T20:05:21.848Z,46.40
2023-03-19T20:07:50.982Z,46.50
2023-03-19T20:10:20.101Z,46.37
2023-03-19T20:12:51.434Z,46.51
2023-03-19T20:15:21.776Z,46.61
2023-03-19T20:17:51.916Z,46.64
2023-03-19T20:20:19.872Z,46.81
2023-03-19T20:22:49.838Z,46.84
2023-03-19T20:25:19.353Z,46.85
2023-03-19T20:27:49.182Z,46.86
2023-03-19T20:30:26.419Z,46.83
2023-03-19T20:32:54.976Z,46.82
2023-03-19T20:35:26.211Z,46.74
2023-03-19T20:37:56.171Z,46.92
2023-03-19T20:40:27.040Z,47.08
2023-03-19T20:42:55.616Z,47.15
2023-03-19T20:45:24.736Z,47.11
2023-03-19T20:47:52.998Z,47.10
2023-03-19T20:50:31.468Z,47.08
2023-03-19T20:53:03.966Z,47.28
2023-03-19T20:55:36.479Z,47.30
2023-03-19T20:58:12.531Z,47.41
2023-03-19T21:00:41.198Z,47.39
2023-03-19T21:03:11.417Z,47.31
2023-03-19T21:05:39.537Z,47.39
2023-03-19T21:08:13.414Z,47.21
2023-03-19T21:10:43.251Z,47.25
2023-03-19T21:13:15.815Z,47.36
2023-03-19T21:15:44.957Z,47.43
2023-03-19T21:18:13.327Z,47.32
2023-03-19T21:20:42.959Z,47.37
2023-03-19T21:23:17.084Z,47.43
2023-03-19T21:25:45.833Z,47.52
2023-03-19T21:28:25.787Z,47.75
2023-03-19T21:30:53.732Z,47.43
2023-03-19T21:33:29.241Z,47.60
2023-03-19T21:35:57.897Z,47.84
2023-03-19T21:38:26.329Z,47.85
2023-03-19T21:40:56.152Z,47.91
2023-03-19T21:43:29.965Z,47.97
2023-03-19T21:45:58.984Z,47.99
2023-03-19T21:48:31.289Z,48.03
2023-03-19T21:51:00.437Z,48.09
2023-03-19T21:53:28.852Z,48.22
2023-03-19T21:55:58.530Z,48.14
2023-03-19T21:58:33.727Z,48.34
2023-03-19T22:01:02.336Z,48.20
2023-03-19T22:03:31.657Z,48.40
2023-03-19T22:05:59.800Z,48.24
2023-03-19T22:08:28.048Z,48.53
2023-03-19T22:10:57.147Z,48.47
2023-03-19T22:13:28.074Z,48.55
2023-03-19T22:15:57.907Z,48.37
2023-03-19T22:18:26.292Z,48.46
2023-03-19T22:20:54.414Z,48.41
2023-03-19T22:23:22.541Z,48.42
2023-03-19T22:25:51.477Z,48.39
2023-03-19T22:28:28.298Z,48.61
2023-03-19T22:30:56.341Z,48.53
2023-03-19T22:33:25.694Z,48.50
2023-03-19T22:35:54.000Z,48.63
2023-03-19T22:38:23.141Z,48.54
2023-03-19T22:40:55.971Z,48.62
2023-03-19T22:43:29.438Z,48.67
2023-03-19T22:46:07.409Z,48.61
2023-03-19T22:48:35.875Z,48.68
2023-03-19T22:51:04.344Z,48.90
2023-03-19T22:53:33.924Z,48.83
2023-03-19T22:56:02.388Z,48.93
2023-03-19T22:58:30.857Z,49.01
2023-03-19T23:00:58.922Z,48.74
2023-03-19T23:03:28.599Z,48.76
2023-03-19T23:05:59.164Z,48.70
2023-03-19T23:08:27.824Z,48.75
2023-03-19T23:10:55.766Z,48.80
2023-03-19T23:13:23.671Z,48.78
2023-03-19T23:16:00.379Z,48.89
2023-03-19T23:18:44.125Z,48.96
2023-03-19T23:21:13.975Z,48.97
2023-03-19T23:23:42.597Z,48.90
2023-03-19T23:26:24.188Z,48.86
2023-03-19T23:28:52.816Z,49.01
2023-03-19T23:31:21.035Z,48.84
2023-03-19T23:33:49.815Z,48.76
2023-03-19T23:36:18.250Z,48.82
2023-03-19T23:38:46.815Z,48.94
2023-03-19T23:41:24.089Z,48.99
2023-03-19T23:43:53.065Z,49.00
2023-03-19T23:46:21.631Z,48.81
2023-03-19T23:48:49.575Z,49.10
2023-03-19T23:51:18.699Z,48.98
2023-03-19T23:53:46.626Z,49.06
2023-03-19T23:56:19.305Z,49.02
2023-03-19T23:58:49.197Z,48.96
